sensor_id;sensor_type;location;lat;lon;timestamp;P1;durP1;ratioP1;P2;durP2;ratioP2
21517;SDS011;61765;45.794;24.150;2024-03-29T00:00:44;2.78;;;1.02;;
21517;SDS011;61765;45.794;24.150;2024-03-29T00:08:48;2.72;;;1.00;;
21517;SDS011;61765;45.794;24.150;2024-03-29T00:16:50;1.88;;;0.63;;
21517;SDS011;61765;45.794;24.150;2024-03-29T00:24:55;2.63;;;1.00;;
21517;SDS011;61765;45.794;24.150;2024-03-29T00:32:57;3.88;;;0.98;;
21517;SDS011;61765;45.794;24.150;2024-03-29T00:41:02;2.10;;;0.80;;
21517;SDS011;61765;45.794;24.150;2024-03-29T00:49:04;1.15;;;0.85;;
21517;SDS011;61765;45.794;24.150;2024-03-29T00:57:09;1.92;;;1.00;;
21517;SDS011;61765;45.794;24.150;2024-03-29T01:05:11;2.72;;;0.82;;
21517;SDS011;61765;45.794;24.150;2024-03-29T01:13:16;1.90;;;1.05;;
21517;SDS011;61765;45.794;24.150;2024-03-29T01:21:17;2.45;;;1.08;;
21517;SDS011;61765;45.794;24.150;2024-03-29T01:29:22;4.72;;;1.30;;
21517;SDS011;61765;45.794;24.150;2024-03-29T01:37:24;3.85;;;1.10;;
21517;SDS011;61765;45.794;24.150;2024-03-29T01:45:29;3.25;;;1.10;;
21517;SDS011;61765;45.794;24.150;2024-03-29T01:53:32;1.90;;;1.17;;
21517;SDS011;61765;45.794;24.150;2024-03-29T02:01:37;2.80;;;1.20;;
21517;SDS011;61765;45.794;24.150;2024-03-29T02:09:40;6.38;;;1.20;;
21517;SDS011;61765;45.794;24.150;2024-03-29T02:17:45;5.63;;;1.20;;
21517;SDS011;61765;45.794;24.150;2024-03-29T02:25:49;4.07;;;1.25;;
21517;SDS011;61765;45.794;24.150;2024-03-29T02:33:51;4.85;;;1.40;;
21517;SDS011;61765;45.794;24.150;2024-03-29T02:41:56;7.55;;;1.70;;
21517;SDS011;61765;45.794;24.150;2024-03-29T02:49:58;5.35;;;1.35;;
21517;SDS011;61765;45.794;24.150;2024-03-29T02:58:02;5.75;;;1.23;;
21517;SDS011;61765;45.794;24.150;2024-03-29T03:06:05;5.32;;;1.38;;
21517;SDS011;61765;45.794;24.150;2024-03-29T03:14:09;6.00;;;1.45;;
21517;SDS011;61765;45.794;24.150;2024-03-29T03:22:11;6.88;;;1.23;;
21517;SDS011;61765;45.794;24.150;2024-03-29T03:30:16;4.57;;;1.25;;
21517;SDS011;61765;45.794;24.150;2024-03-29T03:38:18;4.90;;;1.92;;
21517;SDS011;61765;45.794;24.150;2024-03-29T03:46:23;5.15;;;1.58;;
21517;SDS011;61765;45.794;24.150;2024-03-29T03:54:25;7.72;;;1.45;;
21517;SDS011;61765;45.794;24.150;2024-03-29T04:02:29;2.70;;;1.13;;
21517;SDS011;61765;45.794;24.150;2024-03-29T04:10:31;4.18;;;1.25;;
21517;SDS011;61765;45.794;24.150;2024-03-29T04:18:41;3.88;;;1.23;;
21517;SDS011;61765;45.794;24.150;2024-03-29T04:26:42;5.25;;;1.10;;
21517;SDS011;61765;45.794;24.150;2024-03-29T04:34:49;6.88;;;1.45;;
21517;SDS011;61765;45.794;24.150;2024-03-29T04:42:51;3.40;;;1.20;;
21517;SDS011;61765;45.794;24.150;2024-03-29T04:50:56;2.85;;;1.52;;
21517;SDS011;61765;45.794;24.150;2024-03-29T04:58:58;3.45;;;1.42;;
21517;SDS011;61765;45.794;24.150;2024-03-29T05:07:02;3.00;;;0.95;;
21517;SDS011;61765;45.794;24.150;2024-03-29T05:15:05;2.10;;;0.80;;
21517;SDS011;61765;45.794;24.150;2024-03-29T05:31:12;1.60;;;0.93;;
21517;SDS011;61765;45.794;24.150;2024-03-29T05:39:18;2.20;;;0.85;;
21517;SDS011;61765;45.794;24.150;2024-03-29T05:47:20;3.88;;;1.10;;
21517;SDS011;61765;45.794;24.150;2024-03-29T05:55:24;1.73;;;0.77;;
21517;SDS011;61765;45.794;24.150;2024-03-29T06:03:26;2.83;;;0.98;;
21517;SDS011;61765;45.794;24.150;2024-03-29T06:11:31;7.93;;;3.53;;
21517;SDS011;61765;45.794;24.150;2024-03-29T06:19:33;7.28;;;2.50;;
21517;SDS011;61765;45.794;24.150;2024-03-29T06:27:38;5.47;;;2.08;;
21517;SDS011;61765;45.794;24.150;2024-03-29T06:35:40;5.07;;;1.52;;
21517;SDS011;61765;45.794;24.150;2024-03-29T06:43:45;5.85;;;3.45;;
21517;SDS011;61765;45.794;24.150;2024-03-29T06:51:47;9.30;;;2.70;;
21517;SDS011;61765;45.794;24.150;2024-03-29T06:59:51;3.90;;;2.10;;
21517;SDS011;61765;45.794;24.150;2024-03-29T07:07:53;5.63;;;1.80;;
21517;SDS011;61765;45.794;24.150;2024-03-29T07:15:58;4.97;;;2.50;;
21517;SDS011;61765;45.794;24.150;2024-03-29T07:24:00;3.53;;;1.75;;
21517;SDS011;61765;45.794;24.150;2024-03-29T07:32:05;8.53;;;3.57;;
21517;SDS011;61765;45.794;24.150;2024-03-29T07:40:08;5.55;;;2.00;;
21517;SDS011;61765;45.794;24.150;2024-03-29T07:48:13;4.40;;;2.28;;
21517;SDS011;61765;45.794;24.150;2024-03-29T07:56:16;7.72;;;2.10;;
21517;SDS011;61765;45.794;24.150;2024-03-29T08:04:21;19.13;;;4.47;;
21517;SDS011;61765;45.794;24.150;2024-03-29T08:12:23;8.63;;;2.08;;
21517;SDS011;61765;45.794;24.150;2024-03-29T08:20:28;8.47;;;2.00;;
21517;SDS011;61765;45.794;24.150;2024-03-29T08:28:30;4.82;;;1.70;;
21517;SDS011;61765;45.794;24.150;2024-03-29T08:36:36;6.25;;;1.83;;
21517;SDS011;61765;45.794;24.150;2024-03-29T08:44:38;4.50;;;1.60;;
21517;SDS011;61765;45.794;24.150;2024-03-29T08:52:42;9.73;;;4.43;;
21517;SDS011;61765;45.794;24.150;2024-03-29T09:00:52;5.47;;;3.92;;
21517;SDS011;61765;45.794;24.150;2024-03-29T09:08:58;6.65;;;1.95;;
21517;SDS011;61765;45.794;24.150;2024-03-29T09:17:00;20.70;;;3.03;;
21517;SDS011;61765;45.794;24.150;2024-03-29T09:25:06;8.45;;;2.30;;
21517;SDS011;61765;45.794;24.150;2024-03-29T09:33:10;10.70;;;4.45;;
21517;SDS011;61765;45.794;24.150;2024-03-29T09:41:15;5.40;;;2.37;;
21517;SDS011;61765;45.794;24.150;2024-03-29T09:49:18;15.48;;;7.53;;
21517;SDS011;61765;45.794;24.150;2024-03-29T09:57:23;4.25;;;1.65;;
21517;SDS011;61765;45.794;24.150;2024-03-29T10:05:25;6.50;;;2.70;;
21517;SDS011;61765;45.794;24.150;2024-03-29T10:13:30;4.78;;;1.88;;
21517;SDS011;61765;45.794;24.150;2024-03-29T10:21:32;4.88;;;2.17;;
21517;SDS011;61765;45.794;24.150;2024-03-29T10:29:37;5.90;;;2.10;;
21517;SDS011;61765;45.794;24.150;2024-03-29T10:37:41;5.03;;;2.20;;
21517;SDS011;61765;45.794;24.150;2024-03-29T10:45:46;9.48;;;5.47;;
21517;SDS011;61765;45.794;24.150;2024-03-29T10:53:49;5.38;;;2.85;;
21517;SDS011;61765;45.794;24.150;2024-03-29T11:01:56;13.15;;;2.92;;
21517;SDS011;61765;45.794;24.150;2024-03-29T11:10:01;9.30;;;2.20;;
21517;SDS011;61765;45.794;24.150;2024-03-29T11:18:08;7.40;;;1.90;;
21517;SDS011;61765;45.794;24.150;2024-03-29T11:26:11;6.63;;;2.72;;
21517;SDS011;61765;45.794;24.150;2024-03-29T11:34:18;7.22;;;3.03;;
21517;SDS011;61765;45.794;24.150;2024-03-29T11:42:34;3.85;;;2.00;;
21517;SDS011;61765;45.794;24.150;2024-03-29T11:50:40;5.70;;;3.70;;
21517;SDS011;61765;45.794;24.150;2024-03-29T11:58:42;5.68;;;1.98;;
21517;SDS011;61765;45.794;24.150;2024-03-29T12:06:47;9.93;;;3.08;;
21517;SDS011;61765;45.794;24.150;2024-03-29T12:14:51;5.07;;;2.00;;
21517;SDS011;61765;45.794;24.150;2024-03-29T12:22:55;4.72;;;1.90;;
21517;SDS011;61765;45.794;24.150;2024-03-29T12:30:59;3.80;;;1.83;;
21517;SDS011;61765;45.794;24.150;2024-03-29T12:39:04;4.68;;;1.88;;
21517;SDS011;61765;45.794;24.150;2024-03-29T12:47:06;5.90;;;1.75;;
21517;SDS011;61765;45.794;24.150;2024-03-29T12:55:11;6.53;;;1.52;;
21517;SDS011;61765;45.794;24.150;2024-03-29T13:03:13;4.15;;;1.52;;
21517;SDS011;61765;45.794;24.150;2024-03-29T13:11:18;7.20;;;2.88;;
21517;SDS011;61765;45.794;24.150;2024-03-29T13:19:20;4.85;;;2.03;;
21517;SDS011;61765;45.794;24.150;2024-03-29T13:27:25;5.13;;;1.65;;
21517;SDS011;61765;45.794;24.150;2024-03-29T13:35:27;6.30;;;1.65;;
21517;SDS011;61765;45.794;24.150;2024-03-29T13:43:31;5.90;;;1.65;;
21517;SDS011;61765;45.794;24.150;2024-03-29T13:51:33;5.57;;;1.67;;
21517;SDS011;61765;45.794;24.150;2024-03-29T13:59:38;6.32;;;2.10;;
21517;SDS011;61765;45.794;24.150;2024-03-29T14:07:40;5.28;;;2.28;;
21517;SDS011;61765;45.794;24.150;2024-03-29T14:15:45;7.22;;;2.28;;
21517;SDS011;61765;45.794;24.150;2024-03-29T14:23:47;4.50;;;1.80;;
21517;SDS011;61765;45.794;24.150;2024-03-29T14:31:51;15.80;;;5.60;;
21517;SDS011;61765;45.794;24.150;2024-03-29T14:39:54;4.03;;;2.00;;
21517;SDS011;61765;45.794;24.150;2024-03-29T14:47:58;5.10;;;1.90;;
21517;SDS011;61765;45.794;24.150;2024-03-29T14:56:00;6.68;;;2.10;;
21517;SDS011;61765;45.794;24.150;2024-03-29T15:04:05;5.23;;;2.00;;
21517;SDS011;61765;45.794;24.150;2024-03-29T15:12:07;7.50;;;2.15;;
21517;SDS011;61765;45.794;24.150;2024-03-29T15:20:12;5.50;;;2.40;;
21517;SDS011;61765;45.794;24.150;2024-03-29T15:28:14;8.77;;;4.30;;
21517;SDS011;61765;45.794;24.150;2024-03-29T15:36:34;6.65;;;2.60;;
21517;SDS011;61765;45.794;24.150;2024-03-29T15:44:37;7.63;;;2.90;;
21517;SDS011;61765;45.794;24.150;2024-03-29T15:52:41;7.15;;;2.65;;
21517;SDS011;61765;45.794;24.150;2024-03-29T16:00:44;5.80;;;2.63;;
21517;SDS011;61765;45.794;24.150;2024-03-29T16:08:48;5.67;;;2.33;;
21517;SDS011;61765;45.794;24.150;2024-03-29T16:16:50;5.35;;;2.95;;
21517;SDS011;61765;45.794;24.150;2024-03-29T16:24:55;5.50;;;2.70;;
21517;SDS011;61765;45.794;24.150;2024-03-29T16:32:57;9.60;;;3.83;;
21517;SDS011;61765;45.794;24.150;2024-03-29T16:41:01;6.13;;;3.50;;
21517;SDS011;61765;45.794;24.150;2024-03-29T16:49:03;10.73;;;3.63;;
21517;SDS011;61765;45.794;24.150;2024-03-29T16:57:08;4.80;;;2.67;;
21517;SDS011;61765;45.794;24.150;2024-03-29T17:05:10;7.72;;;3.47;;
21517;SDS011;61765;45.794;24.150;2024-03-29T17:13:15;8.53;;;4.20;;
21517;SDS011;61765;45.794;24.150;2024-03-29T17:21:17;13.55;;;5.28;;
21517;SDS011;61765;45.794;24.150;2024-03-29T17:29:21;14.40;;;5.83;;
21517;SDS011;61765;45.794;24.150;2024-03-29T17:37:23;12.32;;;6.13;;
21517;SDS011;61765;45.794;24.150;2024-03-29T17:45:28;15.90;;;6.50;;
21517;SDS011;61765;45.794;24.150;2024-03-29T17:53:30;16.60;;;9.27;;
21517;SDS011;61765;45.794;24.150;2024-03-29T18:01:34;28.88;;;13.73;;
21517;SDS011;61765;45.794;24.150;2024-03-29T18:09:36;14.82;;;5.93;;
21517;SDS011;61765;45.794;24.150;2024-03-29T18:17:41;11.00;;;4.43;;
21517;SDS011;61765;45.794;24.150;2024-03-29T18:25:43;14.05;;;4.32;;
21517;SDS011;61765;45.794;24.150;2024-03-29T18:33:48;12.50;;;4.30;;
21517;SDS011;61765;45.794;24.150;2024-03-29T18:41:50;11.70;;;4.72;;
21517;SDS011;61765;45.794;24.150;2024-03-29T18:49:55;18.25;;;7.30;;
21517;SDS011;61765;45.794;24.150;2024-03-29T18:57:57;19.73;;;10.23;;
21517;SDS011;61765;45.794;24.150;2024-03-29T19:06:02;19.85;;;9.70;;
21517;SDS011;61765;45.794;24.150;2024-03-29T19:14:04;17.58;;;10.15;;
21517;SDS011;61765;45.794;24.150;2024-03-29T19:22:08;21.50;;;10.75;;
21517;SDS011;61765;45.794;24.150;2024-03-29T19:30:11;18.83;;;10.07;;
21517;SDS011;61765;45.794;24.150;2024-03-29T19:38:16;23.02;;;10.93;;
21517;SDS011;61765;45.794;24.150;2024-03-29T19:46:18;25.52;;;12.32;;
21517;SDS011;61765;45.794;24.150;2024-03-29T19:54:22;27.70;;;13.10;;
21517;SDS011;61765;45.794;24.150;2024-03-29T20:02:24;27.27;;;12.70;;
21517;SDS011;61765;45.794;24.150;2024-03-29T20:10:29;27.65;;;12.82;;
21517;SDS011;61765;45.794;24.150;2024-03-29T20:18:35;23.67;;;11.48;;
21517;SDS011;61765;45.794;24.150;2024-03-29T20:26:40;31.27;;;13.10;;
21517;SDS011;61765;45.794;24.150;2024-03-29T20:34:42;24.00;;;11.25;;
21517;SDS011;61765;45.794;24.150;2024-03-29T20:42:46;18.08;;;9.00;;
21517;SDS011;61765;45.794;24.150;2024-03-29T20:50:56;17.83;;;8.32;;
21517;SDS011;61765;45.794;24.150;2024-03-29T20:59:01;14.98;;;7.63;;
21517;SDS011;61765;45.794;24.150;2024-03-29T21:07:03;17.67;;;6.68;;
21517;SDS011;61765;45.794;24.150;2024-03-29T21:15:08;17.60;;;7.05;;
21517;SDS011;61765;45.794;24.150;2024-03-29T21:23:11;13.35;;;6.32;;
21517;SDS011;61765;45.794;24.150;2024-03-29T21:31:15;15.02;;;6.45;;
21517;SDS011;61765;45.794;24.150;2024-03-29T21:39:17;20.85;;;9.95;;
21517;SDS011;61765;45.794;24.150;2024-03-29T21:47:22;16.55;;;8.98;;
21517;SDS011;61765;45.794;24.150;2024-03-29T21:55:24;20.15;;;8.07;;
21517;SDS011;61765;45.794;24.150;2024-03-29T22:03:29;15.82;;;7.40;;
21517;SDS011;61765;45.794;24.150;2024-03-29T22:11:31;16.75;;;6.97;;
21517;SDS011;61765;45.794;24.150;2024-03-29T22:19:36;13.82;;;6.97;;
21517;SDS011;61765;45.794;24.150;2024-03-29T22:27:37;17.27;;;6.20;;
21517;SDS011;61765;45.794;24.150;2024-03-29T22:35:42;17.25;;;7.50;;
21517;SDS011;61765;45.794;24.150;2024-03-29T22:43:44;17.52;;;7.18;;
21517;SDS011;61765;45.794;24.150;2024-03-29T22:51:49;15.32;;;7.82;;
21517;SDS011;61765;45.794;24.150;2024-03-29T22:59:51;15.27;;;6.43;;
21517;SDS011;61765;45.794;24.150;2024-03-29T23:07:55;15.43;;;6.28;;
21517;SDS011;61765;45.794;24.150;2024-03-29T23:15:58;16.35;;;5.72;;
21517;SDS011;61765;45.794;24.150;2024-03-29T23:24:03;12.48;;;5.82;;
21517;SDS011;61765;45.794;24.150;2024-03-29T23:32:05;14.93;;;6.15;;
21517;SDS011;61765;45.794;24.150;2024-03-29T23:40:11;12.23;;;6.13;;
21517;SDS011;61765;45.794;24.150;2024-03-29T23:48:13;16.42;;;6.13;;
21517;SDS011;61765;45.794;24.150;2024-03-29T23:56:17;11.50;;;5.65;;
